Time;durP1;ratioP1;P1;durP2;ratioP2;P2;SDS_P1;SDS_P2;PMS_P1;PMS_P2;Temp;Humidity;BMP_temperature;BMP_pressure;BME280_temperature;BME280_humidity;BME280_pressure;Samples;Min_cycle;Max_cycle;Signal;HPM_P1;HPM_P2
2024/01/30 00:00:06;;;;;;;0.80;0.80;;;;;;;;;;5017578;28;20252;-84
2024/01/30 00:02:33;;;;;;;0.90;0.90;;;;;;;;;;5016261;28;20179;-83
2024/01/30 00:04:59;;;;;;;0.80;0.80;;;;;;;;;;5016630;28;20231;-85
2024/01/30 00:07:25;;;;;;;0.90;0.90;;;;;;;;;;5026364;28;20202;-84
2024/01/30 00:09:51;;;;;;;0.80;0.80;;;;;;;;;;5037071;28;20210;-84
2024/01/30 00:12:17;;;;;;;0.80;0.80;;;;;;;;;;5036628;28;20186;-84
2024/01/30 00:14:43;;;;;;;0.90;0.90;;;;;;;;;;5037016;28;20646;-84
2024/01/30 00:17:09;;;;;;;0.80;0.80;;;;;;;;;;5036477;28;20223;-84
2024/01/30 00:19:35;;;;;;;0.90;0.90;;;;;;;;;;5036111;28;20180;-84
2024/01/30 00:22:01;;;;;;;0.80;0.80;;;;;;;;;;5038000;28;20595;-84
2024/01/30 00:24:27;;;;;;;0.80;0.80;;;;;;;;;;5038038;28;20184;-85
2024/01/30 00:26:53;;;;;;;0.80;0.80;;;;;;;;;;5037688;28;20195;-84
2024/01/30 00:29:19;;;;;;;0.90;0.90;;;;;;;;;;5037854;28;20187;-84
2024/01/30 00:31:46;;;;;;;0.87;0.87;;;;;;;;;;5038533;28;20176;-85
2024/01/30 00:34:12;;;;;;;0.87;0.87;;;;;;;;;;5039021;28;20168;-85
2024/01/30 00:36:38;;;;;;;1.00;1.00;;;;;;;;;;5052137;28;20214;-83
2024/01/30 00:39:09;;;;;;;0.90;0.90;;;;;;;;;;5051154;28;20634;-84
2024/01/30 00:41:34;;;;;;;0.90;0.90;;;;;;;;;;5035216;28;20244;-84
2024/01/30 00:44:00;;;;;;;0.90;0.90;;;;;;;;;;5037340;28;20181;-81
2024/01/30 00:46:26;;;;;;;0.90;0.90;;;;;;;;;;5036565;28;20261;-79
2024/01/30 00:48:52;;;;;;;0.80;0.80;;;;;;;;;;5024008;28;20176;-84
2024/01/30 00:51:18;;;;;;;0.90;0.90;;;;;;;;;;5016050;28;20230;-84
2024/01/30 00:53:45;;;;;;;0.80;0.80;;;;;;;;;;5015609;28;20183;-83
2024/01/30 00:56:11;;;;;;;0.90;0.90;;;;;;;;;;5014577;28;20335;-84
2024/01/30 00:58:37;;;;;;;0.90;0.90;;;;;;;;;;5017112;28;20200;-84
2024/01/30 01:01:03;;;;;;;0.90;0.90;;;;;;;;;;5016391;28;20180;-84
2024/01/30 01:03:29;;;;;;;0.90;0.90;;;;;;;;;;5014951;28;20655;-84
2024/01/30 01:05:55;;;;;;;0.90;0.90;;;;;;;;;;5036005;28;20186;-84
2024/01/30 01:08:21;;;;;;;0.90;0.90;;;;;;;;;;5017417;28;20180;-85
2024/01/30 01:10:47;;;;;;;0.93;0.93;;;;;;;;;;5040607;28;20176;-82
2024/01/30 01:13:13;;;;;;;0.90;0.90;;;;;;;;;;5053196;28;20168;-85
2024/01/30 01:15:39;;;;;;;0.90;0.90;;;;;;;;;;5044123;28;20812;-84
2024/01/30 01:18:05;;;;;;;0.90;0.90;;;;;;;;;;5036760;28;20204;-84
2024/01/30 01:20:31;;;;;;;0.90;0.90;;;;;;;;;;5035798;28;20366;-85
2024/01/30 01:22:57;;;;;;;0.90;0.90;;;;;;;;;;5037501;28;20184;-84
2024/01/30 01:25:23;;;;;;;0.80;0.80;;;;;;;;;;5040683;28;20175;-83
2024/01/30 01:27:51;;;;;;;0.90;0.90;;;;;;;;;;5045330;28;20203;-82
2024/01/30 01:30:21;;;;;;;0.80;0.80;;;;;;;;;;5045826;28;20184;-84
2024/01/30 01:32:54;;;;;;;0.90;0.90;;;;;;;;;;5045222;28;20175;-84
2024/01/30 01:35:27;;;;;;;0.80;0.80;;;;;;;;;;5044769;28;20238;-83
2024/01/30 01:37:59;;;;;;;0.80;0.80;;;;;;;;;;5028644;28;20196;-84
2024/01/30 01:40:25;;;;;;;0.90;0.90;;;;;;;;;;5027606;28;20196;-84
2024/01/30 01:42:54;;;;;;;0.80;0.80;;;;;;;;;;5041184;28;20172;-84
2024/01/30 01:45:21;;;;;;;0.90;0.90;;;;;;;;;;5046974;28;20179;-83
2024/01/30 01:47:56;;;;;;;0.90;0.90;;;;;;;;;;5044910;28;20233;-84
2024/01/30 01:50:22;;;;;;;0.90;0.90;;;;;;;;;;5045630;28;20239;-83
2024/01/30 01:52:48;;;;;;;0.80;0.80;;;;;;;;;;5044979;28;20172;-85
2024/01/30 01:55:16;;;;;;;0.80;0.80;;;;;;;;;;5034046;28;20665;-84
2024/01/30 01:57:42;;;;;;;0.90;0.90;;;;;;;;;;5031206;28;20254;-84
2024/01/30 02:00:10;;;;;;;0.90;0.90;;;;;;;;;;5016172;28;20643;-84
2024/01/30 02:02:36;;;;;;;0.90;0.90;;;;;;;;;;5015735;28;20590;-84
2024/01/30 02:05:03;;;;;;;0.90;0.90;;;;;;;;;;5031852;28;20258;-85
2024/01/30 02:07:29;;;;;;;0.80;0.80;;;;;;;;;;5039921;28;20215;-83
2024/01/30 02:09:55;;;;;;;0.90;0.90;;;;;;;;;;5044535;28;20164;-83
2024/01/30 02:12:21;;;;;;;1.00;1.00;;;;;;;;;;5054831;28;20172;-84
2024/01/30 02:14:50;;;;;;;0.90;0.90;;;;;;;;;;5048223;28;20219;-83
2024/01/30 02:17:17;;;;;;;0.77;0.77;;;;;;;;;;5025561;28;20212;-83
2024/01/30 02:19:43;;;;;;;0.70;0.70;;;;;;;;;;5015824;28;20589;-83
2024/01/30 02:22:10;;;;;;;0.80;0.80;;;;;;;;;;5016670;28;20262;-83
2024/01/30 02:24:35;;;;;;;0.80;0.80;;;;;;;;;;5016004;28;20176;-83
2024/01/30 02:27:01;;;;;;;0.80;0.80;;;;;;;;;;5015300;28;20200;-84
2024/01/30 02:29:27;;;;;;;0.90;0.90;;;;;;;;;;5016612;28;20177;-84
2024/01/30 02:31:53;;;;;;;0.90;0.90;;;;;;;;;;5016150;28;20184;-83
2024/01/30 02:34:19;;;;;;;0.80;0.80;;;;;;;;;;5016469;28;20186;-84
2024/01/30 02:36:46;;;;;;;0.90;0.90;;;;;;;;;;5015676;28;20243;-83
2024/01/30 02:39:12;;;;;;;0.80;0.80;;;;;;;;;;5016781;28;20177;-85
2024/01/30 02:41:38;;;;;;;0.90;0.90;;;;;;;;;;5017123;28;20180;-84
2024/01/30 02:44:04;;;;;;;0.90;0.90;;;;;;;;;;5016367;28;20176;-84
2024/01/30 02:46:30;;;;;;;0.90;0.90;;;;;;;;;;5015528;28;20196;-84
2024/01/30 02:48:56;;;;;;;0.90;0.90;;;;;;;;;;5016443;28;20177;-84
2024/01/30 02:51:22;;;;;;;0.80;0.80;;;;;;;;;;5020098;28;20169;-84
2024/01/30 02:53:48;;;;;;;0.80;0.80;;;;;;;;;;5019808;28;20183;-84
2024/01/30 02:56:14;;;;;;;0.90;0.90;;;;;;;;;;5019542;28;20274;-84
2024/01/30 02:58:40;;;;;;;0.90;0.90;;;;;;;;;;5018889;28;20176;-84
2024/01/30 03:01:09;;;;;;;0.80;0.80;;;;;;;;;;5020144;28;20185;-84
2024/01/30 03:03:35;;;;;;;0.80;0.80;;;;;;;;;;5019580;28;20184;-84
2024/01/30 03:06:01;;;;;;;0.87;0.87;;;;;;;;;;5019531;28;20594;-85
2024/01/30 03:08:28;;;;;;;0.80;0.80;;;;;;;;;;5020016;28;20252;-84
2024/01/30 03:10:54;;;;;;;0.70;0.70;;;;;;;;;;5020580;28;20547;-84
2024/01/30 03:13:20;;;;;;;0.80;0.80;;;;;;;;;;5035283;28;20165;-83
2024/01/30 03:15:46;;;;;;;0.80;0.80;;;;;;;;;;5035476;28;20201;-82
2024/01/30 03:18:12;;;;;;;0.90;0.90;;;;;;;;;;5035105;28;20264;-83
2024/01/30 03:20:38;;;;;;;0.90;0.90;;;;;;;;;;5036510;28;20168;-82
2024/01/30 03:23:05;;;;;;;0.87;0.87;;;;;;;;;;5038556;28;20220;-82
2024/01/30 03:25:31;;;;;;;0.90;0.90;;;;;;;;;;5026392;28;20185;-83
2024/01/30 03:27:57;;;;;;;0.90;0.90;;;;;;;;;;5013805;28;20204;-83
2024/01/30 03:30:23;;;;;;;0.80;0.80;;;;;;;;;;5014919;28;20176;-83
2024/01/30 03:32:49;;;;;;;0.80;0.80;;;;;;;;;;5014955;28;20227;-84
2024/01/30 03:35:15;;;;;;;0.90;0.90;;;;;;;;;;5015363;28;20212;-84
2024/01/30 03:37:41;;;;;;;0.80;0.80;;;;;;;;;;5015457;28;20282;-84
2024/01/30 03:40:07;;;;;;;0.90;0.90;;;;;;;;;;5016103;28;20176;-84
2024/01/30 03:42:33;;;;;;;0.80;0.80;;;;;;;;;;5016039;28;20256;-84
2024/01/30 03:44:59;;;;;;;0.80;0.80;;;;;;;;;;5015634;28;20196;-84
2024/01/30 03:47:25;;;;;;;0.80;0.80;;;;;;;;;;5015498;28;20762;-85
2024/01/30 03:49:51;;;;;;;0.80;0.80;;;;;;;;;;5015686;28;20184;-84
2024/01/30 03:52:17;;;;;;;0.90;0.90;;;;;;;;;;5014586;28;20180;-85
2024/01/30 03:54:43;;;;;;;0.90;0.90;;;;;;;;;;5015093;28;20635;-84
2024/01/30 03:57:09;;;;;;;0.90;0.90;;;;;;;;;;5013920;28;20304;-84
2024/01/30 03:59:35;;;;;;;0.90;0.90;;;;;;;;;;5015906;28;20192;-85
2024/01/30 04:02:01;;;;;;;0.90;0.90;;;;;;;;;;5015088;28;20176;-85
2024/01/30 04:04:27;;;;;;;0.90;0.90;;;;;;;;;;5014871;28;20235;-85
2024/01/30 04:06:53;;;;;;;0.83;0.83;;;;;;;;;;5015546;28;20610;-86
2024/01/30 04:09:19;;;;;;;0.80;0.80;;;;;;;;;;5015952;28;20184;-86
2024/01/30 04:11:45;;;;;;;0.80;0.80;;;;;;;;;;5017511;28;20192;-84
2024/01/30 04:14:11;;;;;;;0.80;0.80;;;;;;;;;;5018030;28;20187;-85
2024/01/30 04:16:37;;;;;;;0.90;0.90;;;;;;;;;;5017618;28;20212;-85
2024/01/30 04:19:03;;;;;;;0.90;0.90;;;;;;;;;;5018021;28;20181;-85
2024/01/30 04:21:29;;;;;;;0.90;0.90;;;;;;;;;;5017956;28;20182;-85
2024/01/30 04:23:55;;;;;;;0.90;0.90;;;;;;;;;;5018357;28;20180;-85
2024/01/30 04:26:21;;;;;;;0.80;0.80;;;;;;;;;;5016991;28;20266;-85
2024/01/30 04:28:47;;;;;;;0.90;0.90;;;;;;;;;;5020183;28;20176;-85
2024/01/30 04:31:13;;;;;;;0.80;0.80;;;;;;;;;;5019844;28;20187;-85
2024/01/30 04:33:39;;;;;;;0.80;0.80;;;;;;;;;;5019263;28;20181;-85
2024/01/30 04:36:05;;;;;;;0.90;0.90;;;;;;;;;;5019007;28;20649;-84
2024/01/30 04:38:32;;;;;;;0.87;0.87;;;;;;;;;;5026006;28;20180;-83
2024/01/30 04:40:58;;;;;;;1.00;1.00;;;;;;;;;;5037547;28;20184;-82
2024/01/30 04:43:26;;;;;;;0.70;0.70;;;;;;;;;;5037559;28;20200;-82
2024/01/30 04:45:52;;;;;;;0.87;0.87;;;;;;;;;;5034766;28;20248;-84
2024/01/30 04:48:18;;;;;;;0.83;0.83;;;;;;;;;;5035524;28;20172;-82
2024/01/30 04:50:45;;;;;;;0.90;0.90;;;;;;;;;;5020559;28;20189;-85
2024/01/30 04:53:11;;;;;;;0.80;0.80;;;;;;;;;;5017976;28;20231;-85
2024/01/30 04:55:37;;;;;;;0.87;0.87;;;;;;;;;;5017511;28;20216;-85
2024/01/30 04:58:03;;;;;;;0.87;0.87;;;;;;;;;;5016001;28;20196;-84
2024/01/30 05:00:29;;;;;;;0.80;0.80;;;;;;;;;;5018708;28;20173;-84
2024/01/30 05:02:58;;;;;;;0.90;0.90;;;;;;;;;;5020172;28;20180;-84
2024/01/30 05:05:25;;;;;;;0.80;0.80;;;;;;;;;;5025786;28;20184;-85
2024/01/30 05:07:51;;;;;;;0.90;0.90;;;;;;;;;;5028221;28;20251;-85
2024/01/30 05:10:18;;;;;;;0.80;0.80;;;;;;;;;;5025379;28;20219;-85
2024/01/30 05:12:44;;;;;;;0.90;0.90;;;;;;;;;;5017189;28;20227;-85
2024/01/30 05:15:10;;;;;;;0.80;0.80;;;;;;;;;;5016066;28;20208;-84
2024/01/30 05:17:36;;;;;;;0.90;0.90;;;;;;;;;;5017479;28;20690;-84
2024/01/30 05:20:02;;;;;;;0.90;0.90;;;;;;;;;;5016918;28;20187;-84
2024/01/30 05:22:28;;;;;;;0.90;0.90;;;;;;;;;;5016371;28;20184;-85
2024/01/30 05:24:54;;;;;;;0.90;0.90;;;;;;;;;;5017997;28;20235;-86
2024/01/30 05:27:20;;;;;;;0.80;0.80;;;;;;;;;;5015770;28;20189;-85
2024/01/30 05:29:45;;;;;;;0.90;0.90;;;;;;;;;;5015549;28;20200;-85
2024/01/30 05:32:11;;;;;;;0.90;0.90;;;;;;;;;;5016334;28;20658;-86
2024/01/30 05:34:37;;;;;;;0.90;0.90;;;;;;;;;;5016817;28;20169;-86
2024/01/30 05:37:04;;;;;;;0.90;0.90;;;;;;;;;;5016881;28;20203;-85
2024/01/30 05:39:32;;;;;;;0.90;0.90;;;;;;;;;;5017203;28;20526;-85
2024/01/30 05:41:58;;;;;;;0.80;0.80;;;;;;;;;;5017531;28;20272;-85
2024/01/30 05:44:24;;;;;;;0.90;0.90;;;;;;;;;;5017072;28;20180;-85
2024/01/30 05:46:50;;;;;;;0.90;0.90;;;;;;;;;;5017522;28;20196;-85
2024/01/30 05:49:16;;;;;;;0.97;0.97;;;;;;;;;;5018394;28;20279;-85
2024/01/30 05:51:42;;;;;;;0.90;0.90;;;;;;;;;;5021503;28;20184;-86
2024/01/30 05:54:08;;;;;;;0.90;0.90;;;;;;;;;;5022551;28;20188;-85
2024/01/30 05:56:34;;;;;;;0.90;0.90;;;;;;;;;;5021659;28;20284;-85
2024/01/30 05:59:00;;;;;;;0.90;0.90;;;;;;;;;;5040271;28;20176;-82
2024/01/30 06:01:26;;;;;;;0.80;0.80;;;;;;;;;;5040329;28;20252;-83
2024/01/30 06:03:52;;;;;;;0.80;0.80;;;;;;;;;;5028210;28;20192;-84
2024/01/30 06:06:18;;;;;;;0.90;0.90;;;;;;;;;;5020723;28;20781;-85
2024/01/30 06:08:44;;;;;;;0.90;0.90;;;;;;;;;;5020659;28;20520;-85
2024/01/30 06:11:13;;;;;;;0.90;0.90;;;;;;;;;;5022985;28;20181;-85
2024/01/30 06:13:39;;;;;;;0.80;0.80;;;;;;;;;;5022140;28;20176;-85
2024/01/30 06:16:05;;;;;;;0.80;0.80;;;;;;;;;;5021326;28;20212;-83
2024/01/30 06:18:32;;;;;;;0.80;0.80;;;;;;;;;;5021420;28;20227;-85
2024/01/30 06:20:58;;;;;;;0.90;0.90;;;;;;;;;;5020977;28;20181;-85
2024/01/30 06:23:24;;;;;;;0.83;0.83;;;;;;;;;;5020451;28;20181;-84
2024/01/30 06:25:50;;;;;;;0.80;0.80;;;;;;;;;;5022504;28;20241;-85
2024/01/30 06:28:16;;;;;;;0.90;0.90;;;;;;;;;;5020103;28;20179;-85
2024/01/30 06:30:42;;;;;;;0.90;0.90;;;;;;;;;;5020610;28;20180;-85
2024/01/30 06:33:08;;;;;;;0.90;0.90;;;;;;;;;;5022343;28;20180;-85
2024/01/30 06:35:36;;;;;;;0.80;0.80;;;;;;;;;;5021376;28;20204;-84
2024/01/30 06:38:02;;;;;;;1.00;1.00;;;;;;;;;;5019441;28;20613;-85
2024/01/30 06:40:27;;;;;;;0.83;0.83;;;;;;;;;;5019116;28;20698;-85
2024/01/30 06:42:53;;;;;;;0.80;0.80;;;;;;;;;;5021019;28;20172;-84
2024/01/30 06:45:19;;;;;;;0.90;0.90;;;;;;;;;;5031840;28;20661;-87
2024/01/30 06:47:45;;;;;;;0.90;0.90;;;;;;;;;;5024674;28;20200;-85
2024/01/30 06:50:11;;;;;;;0.90;0.90;;;;;;;;;;5021745;28;20561;-86
2024/01/30 06:52:37;;;;;;;0.80;0.80;;;;;;;;;;5013612;28;20218;-85
2024/01/30 06:55:05;;;;;;;0.90;0.90;;;;;;;;;;5013962;28;20208;-84
2024/01/30 06:57:31;;;;;;;0.90;0.90;;;;;;;;;;5030472;28;20292;-85
2024/01/30 06:59:57;;;;;;;0.93;0.93;;;;;;;;;;5029103;28;20172;-86
2024/01/30 07:02:23;;;;;;;0.80;0.80;;;;;;;;;;5022443;28;20207;-86
2024/01/30 07:04:49;;;;;;;0.90;0.90;;;;;;;;;;5041616;28;20178;-86
2024/01/30 07:07:15;;;;;;;0.80;0.80;;;;;;;;;;5042906;28;20228;-87
2024/01/30 07:09:42;;;;;;;0.90;0.90;;;;;;;;;;5047289;28;20207;-86
2024/01/30 07:12:09;;;;;;;0.90;0.90;;;;;;;;;;5047198;28;20156;-86
2024/01/30 07:14:35;;;;;;;0.90;0.90;;;;;;;;;;5046006;28;20182;-84
2024/01/30 07:17:01;;;;;;;0.80;0.80;;;;;;;;;;5046017;28;20193;-84
2024/01/30 07:19:27;;;;;;;0.90;0.90;;;;;;;;;;5050945;28;20180;-84
2024/01/30 07:21:53;;;;;;;0.80;0.80;;;;;;;;;;5034641;28;20179;-85
2024/01/30 07:24:19;;;;;;;0.80;0.80;;;;;;;;;;5029104;28;20231;-87
2024/01/30 07:26:45;;;;;;;0.80;0.80;;;;;;;;;;5014551;28;20612;-86
2024/01/30 07:29:11;;;;;;;0.80;0.80;;;;;;;;;;5011352;28;20172;-85
2024/01/30 07:31:37;;;;;;;0.90;0.90;;;;;;;;;;5016616;28;20172;-86
2024/01/30 07:34:03;;;;;;;0.80;0.80;;;;;;;;;;5023757;28;20207;-85
2024/01/30 07:36:29;;;;;;;0.80;0.80;;;;;;;;;;5013166;28;20236;-82
2024/01/30 07:38:55;;;;;;;0.80;0.80;;;;;;;;;;5022467;28;20250;-86
2024/01/30 07:41:21;;;;;;;0.80;0.80;;;;;;;;;;5040620;28;20193;-85
2024/01/30 07:43:47;;;;;;;0.80;0.80;;;;;;;;;;5028659;28;20244;-84
2024/01/30 07:46:13;;;;;;;0.70;0.70;;;;;;;;;;5041033;28;20338;-85
2024/01/30 07:48:39;;;;;;;0.87;0.87;;;;;;;;;;5037924;28;20176;-83
2024/01/30 07:51:05;;;;;;;0.80;0.80;;;;;;;;;;5031027;28;20170;-86
2024/01/30 07:53:31;;;;;;;0.80;0.80;;;;;;;;;;5038522;28;20187;-87
2024/01/30 07:55:57;;;;;;;0.70;0.70;;;;;;;;;;5044123;28;20204;-86
2024/01/30 07:58:23;;;;;;;0.60;0.60;;;;;;;;;;5036916;28;20243;-86
2024/01/30 08:00:51;;;;;;;0.70;0.70;;;;;;;;;;5024489;28;20678;-87
2024/01/30 08:03:18;;;;;;;0.70;0.70;;;;;;;;;;5042439;28;20218;-85
2024/01/30 08:05:44;;;;;;;0.60;0.60;;;;;;;;;;5044229;28;20180;-86
2024/01/30 08:08:10;;;;;;;0.60;0.60;;;;;;;;;;5044239;28;20223;-86
2024/01/30 08:10:36;;;;;;;0.60;0.60;;;;;;;;;;5045266;28;20172;-85
2024/01/30 08:13:02;;;;;;;0.70;0.70;;;;;;;;;;5040553;28;20318;-87
2024/01/30 08:15:28;;;;;;;0.70;0.70;;;;;;;;;;5047724;28;20208;-85
2024/01/30 08:17:57;;;;;;;0.70;0.70;;;;;;;;;;5025527;28;20259;-86
2024/01/30 08:20:25;;;;;;;0.70;0.70;;;;;;;;;;5020350;28;20228;-85
2024/01/30 08:22:51;;;;;;;0.60;0.60;;;;;;;;;;5031859;28;20172;-84
2024/01/30 08:25:17;;;;;;;0.60;0.60;;;;;;;;;;5027127;28;20618;-85
2024/01/30 08:27:43;;;;;;;0.73;0.73;;;;;;;;;;5018496;28;20215;-86
2024/01/30 08:30:09;;;;;;;0.70;0.70;;;;;;;;;;5023363;28;20726;-86
2024/01/30 08:32:35;;;;;;;0.70;0.70;;;;;;;;;;5038087;28;20569;-85
2024/01/30 08:35:03;;;;;;;0.60;0.60;;;;;;;;;;5054056;28;20227;-86
2024/01/30 08:37:29;;;;;;;0.70;0.70;;;;;;;;;;5055450;28;20183;-85
2024/01/30 08:39:55;;;;;;;0.60;0.60;;;;;;;;;;5055413;28;20167;-85
2024/01/30 08:42:22;;;;;;;0.60;0.60;;;;;;;;;;5052815;28;20190;-85
2024/01/30 08:44:53;;;;;;;0.67;0.67;;;;;;;;;;5047429;28;20249;-85
2024/01/30 08:47:19;;;;;;;0.50;0.50;;;;;;;;;;5045970;28;20268;-85
2024/01/30 08:49:45;;;;;;;0.50;0.50;;;;;;;;;;5057340;28;20344;-85
2024/01/30 08:52:11;;;;;;;0.60;0.60;;;;;;;;;;5057470;28;20240;-85
2024/01/30 08:54:37;;;;;;;0.53;0.53;;;;;;;;;;5049218;28;20231;-86
2024/01/30 08:57:04;;;;;;;0.40;0.40;;;;;;;;;;5038025;28;20283;-85
2024/01/30 08:59:30;;;;;;;0.60;0.60;;;;;;;;;;5035942;28;20275;-84
2024/01/30 09:01:57;;;;;;;0.57;0.57;;;;;;;;;;5035684;28;20183;-86
2024/01/30 09:04:23;;;;;;;0.60;0.60;;;;;;;;;;5036700;28;20175;-86
2024/01/30 09:06:50;;;;;;;0.50;0.50;;;;;;;;;;5036665;28;20574;-85
2024/01/30 09:09:16;;;;;;;0.70;0.70;;;;;;;;;;5036667;28;20184;-85
2024/01/30 09:11:42;;;;;;;0.50;0.50;;;;;;;;;;5035346;28;20172;-87
2024/01/30 09:14:08;;;;;;;0.70;0.70;;;;;;;;;;5036548;28;20180;-90
2024/01/30 09:16:34;;;;;;;0.60;0.60;;;;;;;;;;5041114;28;20227;-88
2024/01/30 09:19:00;;;;;;;0.50;0.50;;;;;;;;;;5052612;28;20202;-85
2024/01/30 09:21:26;;;;;;;0.50;0.50;;;;;;;;;;5052498;28;20210;-84
2024/01/30 09:23:54;;;;;;;0.50;0.50;;;;;;;;;;5043094;28;20317;-85
2024/01/30 09:26:21;;;;;;;0.60;0.60;;;;;;;;;;5031564;28;20299;-85
2024/01/30 09:28:46;;;;;;;0.50;0.50;;;;;;;;;;5035280;28;20238;-87
2024/01/30 09:31:12;;;;;;;0.40;0.40;;;;;;;;;;5035793;28;20179;-84
2024/01/30 09:33:39;;;;;;;0.47;0.47;;;;;;;;;;5034873;28;20613;-84
2024/01/30 09:36:08;;;;;;;0.43;0.43;;;;;;;;;;5035578;28;20208;-85
2024/01/30 09:38:35;;;;;;;0.47;0.47;;;;;;;;;;5034530;28;20180;-85
2024/01/30 09:41:04;;;;;;;0.40;0.40;;;;;;;;;;5048146;28;20178;-85
2024/01/30 09:43:34;;;;;;;0.53;0.53;;;;;;;;;;5037118;28;20179;-86
2024/01/30 09:46:02;;;;;;;0.40;0.40;;;;;;;;;;5034974;28;20259;-88
2024/01/30 09:48:28;;;;;;;0.40;0.40;;;;;;;;;;5040215;28;20187;-84
2024/01/30 09:50:54;;;;;;;0.60;0.60;;;;;;;;;;5032091;28;20183;-84
2024/01/30 09:53:20;;;;;;;0.60;0.60;;;;;;;;;;5003546;28;20869;-85
2024/01/30 09:55:47;;;;;;;0.60;0.60;;;;;;;;;;5001879;28;20208;-83
2024/01/30 09:58:13;;;;;;;0.53;0.53;;;;;;;;;;5006194;28;20177;-86
2024/01/30 10:00:39;;;;;;;0.50;0.50;;;;;;;;;;5004435;28;20708;-85
2024/01/30 10:03:05;;;;;;;0.60;0.60;;;;;;;;;;5007994;28;20180;-84
2024/01/30 10:05:35;;;;;;;0.40;0.40;;;;;;;;;;5012538;28;20188;-80
2024/01/30 10:08:01;;;;;;;0.70;0.70;;;;;;;;;;5018455;28;20525;-83
2024/01/30 10:10:27;;;;;;;0.43;0.43;;;;;;;;;;5014353;28;20211;-83
2024/01/30 10:12:53;;;;;;;0.60;0.60;;;;;;;;;;5019631;28;20176;-83
2024/01/30 10:15:19;;;;;;;0.70;0.70;;;;;;;;;;5016598;28;20289;-83
2024/01/30 10:17:46;;;;;;;0.50;0.50;;;;;;;;;;5016269;28;20216;-85
2024/01/30 10:20:12;;;;;;;0.35;0.35;;;;;;;;;;5017112;28;20419;-84
2024/01/30 10:22:39;;;;;;;0.50;0.50;;;;;;;;;;5018269;28;20176;-83
2024/01/30 10:25:05;;;;;;;0.50;0.50;;;;;;;;;;5034846;28;20175;-83
2024/01/30 10:27:31;;;;;;;0.40;0.40;;;;;;;;;;5027977;28;20228;-86
2024/01/30 10:29:57;;;;;;;0.60;0.60;;;;;;;;;;5016520;28;20248;-82
2024/01/30 10:32:23;;;;;;;0.47;0.47;;;;;;;;;;5008311;28;20601;-87
2024/01/30 10:34:49;;;;;;;0.50;0.50;;;;;;;;;;4992599;28;20177;-84
2024/01/30 10:37:16;;;;;;;0.60;0.60;;;;;;;;;;4994606;28;20197;-86
2024/01/30 10:39:43;;;;;;;0.60;0.60;;;;;;;;;;4997309;28;20259;-86
2024/01/30 10:42:13;;;;;;;0.67;0.67;;;;;;;;;;4998743;28;20307;-86
2024/01/30 10:44:49;;;;;;;0.60;0.60;;;;;;;;;;4997080;28;20236;-85
2024/01/30 10:47:19;;;;;;;0.70;0.70;;;;;;;;;;4996739;28;20209;-86
2024/01/30 10:49:47;;;;;;;0.60;0.60;;;;;;;;;;4997494;28;20178;-87
2024/01/30 10:52:13;;;;;;;0.70;0.70;;;;;;;;;;5000281;28;20667;-86
2024/01/30 10:54:40;;;;;;;0.70;0.70;;;;;;;;;;5004040;28;20169;-86
2024/01/30 10:57:06;;;;;;;0.70;0.70;;;;;;;;;;5000370;28;20687;-87
2024/01/30 10:59:33;;;;;;;0.70;0.70;;;;;;;;;;4999317;28;20188;-87
2024/01/30 11:02:00;;;;;;;0.60;0.60;;;;;;;;;;4996681;28;20182;-88
2024/01/30 11:04:26;;;;;;;0.70;0.70;;;;;;;;;;4997458;28;20189;-87
2024/01/30 11:06:54;;;;;;;0.60;0.60;;;;;;;;;;5002393;28;20227;-86
2024/01/30 11:09:21;;;;;;;0.60;0.60;;;;;;;;;;4998897;28;20207;-87
2024/01/30 11:12:00;;;;;;;0.70;0.70;;;;;;;;;;4999173;28;20211;-86
2024/01/30 11:14:26;;;;;;;0.70;0.70;;;;;;;;;;4998235;28;20181;-87
2024/01/30 11:16:52;;;;;;;0.60;0.60;;;;;;;;;;4998461;28;20225;-86
2024/01/30 11:19:25;;;;;;;0.60;0.60;;;;;;;;;;5012467;28;20232;-84
2024/01/30 11:21:53;;;;;;;0.70;0.70;;;;;;;;;;4996598;28;20285;-86
2024/01/30 11:24:20;;;;;;;0.70;0.70;;;;;;;;;;4995296;28;20181;-88
2024/01/30 11:26:46;;;;;;;0.70;0.70;;;;;;;;;;4997250;28;20207;-85
2024/01/30 11:29:15;;;;;;;0.70;0.70;;;;;;;;;;5000275;28;20185;-87
2024/01/30 11:31:52;;;;;;;0.70;0.70;;;;;;;;;;4998711;28;20189;-88
2024/01/30 11:34:18;;;;;;;0.70;0.70;;;;;;;;;;4999591;28;20180;-89
2024/01/30 11:36:46;;;;;;;0.60;0.60;;;;;;;;;;4998872;28;20225;-88
2024/01/30 11:39:12;;;;;;;0.63;0.63;;;;;;;;;;5003704;28;20184;-89
2024/01/30 11:41:39;;;;;;;0.80;0.80;;;;;;;;;;5012051;28;20593;-87
2024/01/30 11:44:05;;;;;;;0.80;0.80;;;;;;;;;;5005288;28;20180;-84
2024/01/30 11:46:31;;;;;;;0.50;0.50;;;;;;;;;;5012259;28;20201;-87
2024/01/30 11:48:57;;;;;;;0.60;0.60;;;;;;;;;;5003232;28;20177;-88
2024/01/30 11:51:23;;;;;;;0.60;0.60;;;;;;;;;;5017612;28;20239;-89
2024/01/30 11:53:52;;;;;;;0.70;0.70;;;;;;;;;;5008726;28;20178;-85
2024/01/30 11:56:18;;;;;;;0.73;0.73;;;;;;;;;;5016929;28;20232;-93
2024/01/30 11:58:44;;;;;;;0.60;0.60;;;;;;;;;;5036687;28;20188;-88
2024/01/30 12:01:11;;;;;;;0.67;0.67;;;;;;;;;;5031957;28;20177;-89
2024/01/30 12:03:37;;;;;;;0.70;0.70;;;;;;;;;;5023431;28;20211;-86
2024/01/30 12:06:03;;;;;;;0.70;0.70;;;;;;;;;;5014957;28;20548;-86
2024/01/30 12:08:29;;;;;;;0.73;0.73;;;;;;;;;;5002430;28;20189;-86
2024/01/30 12:10:56;;;;;;;0.73;0.73;;;;;;;;;;5016321;28;20579;-86
2024/01/30 12:13:22;;;;;;;0.73;0.73;;;;;;;;;;5018240;28;20180;-88
2024/01/30 12:15:48;;;;;;;0.70;0.70;;;;;;;;;;5016679;28;20207;-87
2024/01/30 12:18:14;;;;;;;0.70;0.70;;;;;;;;;;5020780;28;20203;-87
2024/01/30 12:20:40;;;;;;;0.90;0.90;;;;;;;;;;5016313;28;20177;-87
2024/01/30 12:23:07;;;;;;;0.70;0.70;;;;;;;;;;5014314;28;20240;-87
2024/01/30 12:25:33;;;;;;;0.70;0.70;;;;;;;;;;5012030;28;20219;-87
2024/01/30 12:27:59;;;;;;;0.80;0.80;;;;;;;;;;5018808;28;20190;-85
2024/01/30 12:30:25;;;;;;;0.80;0.80;;;;;;;;;;5018002;28;20235;-87
2024/01/30 12:32:51;;;;;;;0.70;0.70;;;;;;;;;;5020881;28;20168;-87
2024/01/30 12:35:18;;;;;;;0.80;0.80;;;;;;;;;;5016033;28;20207;-86
2024/01/30 12:37:44;;;;;;;0.70;0.70;;;;;;;;;;5019704;28;20207;-86
2024/01/30 12:40:13;;;;;;;0.70;0.70;;;;;;;;;;5020302;28;20238;-86
2024/01/30 12:42:39;;;;;;;0.63;0.63;;;;;;;;;;5029632;28;20221;-85
2024/01/30 12:45:05;;;;;;;0.70;0.70;;;;;;;;;;5032292;28;20184;-85
2024/01/30 12:47:32;;;;;;;0.70;0.70;;;;;;;;;;5032109;28;20274;-85
2024/01/30 12:49:58;;;;;;;0.60;0.60;;;;;;;;;;5030915;28;20574;-86
2024/01/30 12:52:24;;;;;;;0.70;0.70;;;;;;;;;;5020335;28;20176;-86
2024/01/30 12:54:50;;;;;;;0.77;0.77;;;;;;;;;;5021551;28;20204;-86
2024/01/30 12:57:16;;;;;;;0.70;0.70;;;;;;;;;;5017954;28;20204;-86
2024/01/30 12:59:43;;;;;;;0.70;0.70;;;;;;;;;;5015191;28;20280;-86
2024/01/30 13:02:09;;;;;;;0.60;0.60;;;;;;;;;;5015281;28;20177;-87
2024/01/30 13:04:35;;;;;;;0.73;0.73;;;;;;;;;;5014558;28;20626;-86
2024/01/30 13:07:01;;;;;;;0.60;0.60;;;;;;;;;;5014467;28;20311;-86
2024/01/30 13:09:27;;;;;;;0.50;0.50;;;;;;;;;;5014173;28;20210;-87
2024/01/30 13:11:53;;;;;;;0.60;0.60;;;;;;;;;;5015559;28;20238;-86
2024/01/30 13:14:20;;;;;;;0.60;0.60;;;;;;;;;;5011238;28;20189;-86
2024/01/30 13:16:46;;;;;;;0.60;0.60;;;;;;;;;;5003958;28;20256;-86
2024/01/30 13:19:12;;;;;;;0.50;0.50;;;;;;;;;;4998474;28;20311;-83
2024/01/30 13:21:38;;;;;;;0.60;0.60;;;;;;;;;;5004238;28;20236;-85
2024/01/30 13:24:04;;;;;;;0.60;0.60;;;;;;;;;;5003513;28;20181;-85
2024/01/30 13:26:30;;;;;;;0.60;0.60;;;;;;;;;;4996690;28;20758;-86
2024/01/30 13:28:57;;;;;;;0.60;0.60;;;;;;;;;;4996635;28;20256;-87
2024/01/30 13:31:23;;;;;;;0.50;0.50;;;;;;;;;;4996628;28;20181;-87
2024/01/30 13:33:49;;;;;;;0.50;0.50;;;;;;;;;;4997191;28;20783;-86
2024/01/30 13:36:15;;;;;;;0.60;0.60;;;;;;;;;;5005667;28;20224;-86
2024/01/30 13:38:41;;;;;;;0.60;0.60;;;;;;;;;;5012772;28;20173;-87
2024/01/30 13:41:07;;;;;;;0.60;0.60;;;;;;;;;;4999506;28;20187;-88
2024/01/30 13:43:33;;;;;;;0.50;0.50;;;;;;;;;;5016449;28;20173;-86
2024/01/30 13:45:59;;;;;;;0.50;0.50;;;;;;;;;;5016447;28;20185;-86
2024/01/30 13:48:25;;;;;;;0.50;0.50;;;;;;;;;;5024054;28;20215;-86
2024/01/30 13:50:52;;;;;;;0.60;0.60;;;;;;;;;;5031438;28;20180;-93
2024/01/30 13:53:19;;;;;;;0.60;0.60;;;;;;;;;;5010670;28;20177;-86
2024/01/30 13:55:45;;;;;;;0.57;0.57;;;;;;;;;;5014961;28;20670;-85
2024/01/30 13:58:11;;;;;;;0.70;0.70;;;;;;;;;;5002052;28;20223;-86
2024/01/30 14:00:37;;;;;;;0.60;0.60;;;;;;;;;;4996311;28;20555;-86
2024/01/30 14:03:04;;;;;;;0.70;0.70;;;;;;;;;;4996107;28;20557;-86
2024/01/30 14:05:30;;;;;;;0.50;0.50;;;;;;;;;;4999450;28;20643;-86
2024/01/30 14:07:57;;;;;;;0.50;0.50;;;;;;;;;;4999223;28;20244;-85
2024/01/30 14:10:23;;;;;;;0.53;0.53;;;;;;;;;;4999901;28;20683;-86
2024/01/30 14:12:49;;;;;;;0.60;0.60;;;;;;;;;;5001692;28;20177;-85
2024/01/30 14:15:17;;;;;;;0.60;0.60;;;;;;;;;;5003050;28;20741;-85
2024/01/30 14:17:43;;;;;;;0.60;0.60;;;;;;;;;;4999890;28;20292;-87
2024/01/30 14:20:10;;;;;;;0.50;0.50;;;;;;;;;;5011154;28;20276;-87
2024/01/30 14:22:36;;;;;;;0.50;0.50;;;;;;;;;;5011533;28;20188;-86
2024/01/30 14:25:05;;;;;;;0.60;0.60;;;;;;;;;;5022193;28;20184;-86
2024/01/30 14:27:32;;;;;;;0.60;0.60;;;;;;;;;;5018266;28;20236;-86
2024/01/30 14:29:59;;;;;;;0.60;0.60;;;;;;;;;;5018405;28;20651;-86
2024/01/30 14:32:25;;;;;;;0.60;0.60;;;;;;;;;;5014521;28;20188;-87
2024/01/30 14:34:52;;;;;;;0.50;0.50;;;;;;;;;;5017035;28;20184;-85
2024/01/30 14:37:18;;;;;;;0.63;0.63;;;;;;;;;;5021616;28;20201;-87